Time;durP1;ratioP1;P1;durP2;ratioP2;P2;SDS_P1;SDS_P2;PMS_P1;PMS_P2;Temp;Humidity;BMP_temperature;BMP_pressure;BME280_temperature;BME280_humidity;BME280_pressure;Samples;Min_cycle;Max_cycle;Signal;HPM_P1;HPM_P2
2022/03/29 00:02:00;;;;;;;28.95;15.75;;;;;;;12.48;53.50;101594.34;5052259;28;20039;-61
2022/03/29 00:04:26;;;;;;;29.17;15.85;;;;;;;12.50;53.54;101592.16;5054596;28;20464;-61
2022/03/29 00:06:52;;;;;;;27.13;16.00;;;;;;;12.45;53.65;101584.53;5053326;28;20467;-61
2022/03/29 00:09:17;;;;;;;25.48;15.43;;;;;;;12.51;53.67;101582.69;5054190;28;20052;-61
2022/03/29 00:11:43;;;;;;;25.23;15.52;;;;;;;12.41;54.10;101586.13;5052700;28;20067;-61
2022/03/29 00:14:09;;;;;;;28.38;15.98;;;;;;;12.34;54.41;101584.56;5053531;28;20079;-60
2022/03/29 00:16:35;;;;;;;25.90;15.70;;;;;;;12.30;54.26;101584.25;5043573;28;20492;-60
2022/03/29 00:19:01;;;;;;;26.50;15.65;;;;;;;12.34;54.48;101581.78;5053221;28;20518;-61
2022/03/29 00:21:26;;;;;;;25.00;15.95;;;;;;;12.27;54.68;101579.16;5052174;28;20499;-61
2022/03/29 00:23:52;;;;;;;28.95;17.17;;;;;;;12.36;54.71;101583.22;5050199;28;20033;-61
2022/03/29 00:26:21;;;;;;;30.52;17.00;;;;;;;12.28;54.83;101583.63;5052520;28;20029;-61
2022/03/29 00:28:47;;;;;;;26.77;16.27;;;;;;;12.30;54.52;101573.09;5050024;28;20037;-60
2022/03/29 00:31:14;;;;;;;27.75;18.05;;;;;;;12.21;54.74;101569.00;5052146;28;20025;-61
2022/03/29 00:33:43;;;;;;;29.23;17.60;;;;;;;12.18;54.79;101573.13;5053448;28;20033;-61
2022/03/29 00:36:08;;;;;;;32.00;17.25;;;;;;;12.15;55.06;101558.88;5053193;28;20021;-61
2022/03/29 00:38:34;;;;;;;26.02;17.65;;;;;;;12.17;55.08;101570.59;5050278;28;20062;-60
2022/03/29 00:40:59;;;;;;;27.05;17.40;;;;;;;12.17;55.36;101562.25;5053765;28;20083;-61
2022/03/29 00:43:25;;;;;;;29.98;17.98;;;;;;;12.18;55.29;101561.13;5052741;28;20514;-60
2022/03/29 00:45:53;;;;;;;26.23;17.30;;;;;;;12.08;55.23;101553.44;5051859;28;20033;-61
2022/03/29 00:48:19;;;;;;;29.35;18.38;;;;;;;12.04;55.24;101546.66;5052400;28;20044;-60
2022/03/29 00:50:45;;;;;;;26.98;18.38;;;;;;;12.00;55.43;101546.31;5050438;28;20037;-62
2022/03/29 00:53:11;;;;;;;28.13;17.30;;;;;;;11.96;55.67;101542.34;5057279;28;20135;-61
2022/03/29 00:55:37;;;;;;;25.63;17.85;;;;;;;11.92;55.63;101541.13;5063506;28;20077;-61
2022/03/29 00:58:04;;;;;;;26.30;17.67;;;;;;;11.87;55.76;101535.47;5054043;28;20489;-61
2022/03/29 01:00:33;;;;;;;28.42;17.10;;;;;;;11.82;55.77;101532.53;5051781;28;20040;-62
2022/03/29 01:03:02;;;;;;;28.52;18.40;;;;;;;11.78;55.96;101525.75;5048773;28;20045;-61
2022/03/29 01:05:30;;;;;;;27.05;17.83;;;;;;;11.74;55.58;101533.75;5052531;28;20103;-61
2022/03/29 01:08:00;;;;;;;29.42;18.35;;;;;;;11.70;56.00;101524.19;5043411;28;20104;-61
2022/03/29 01:10:26;;;;;;;34.45;18.85;;;;;;;11.66;55.83;101525.78;5051971;28;20025;-61
2022/03/29 01:12:52;;;;;;;27.70;18.67;;;;;;;11.64;56.21;101524.34;5036223;28;20029;-61
2022/03/29 01:15:19;;;;;;;27.27;18.65;;;;;;;11.61;56.17;101520.13;5051021;28;20460;-61
2022/03/29 01:17:49;;;;;;;27.38;19.15;;;;;;;11.57;56.74;101521.69;5052390;28;20172;-61
2022/03/29 01:20:19;;;;;;;27.45;19.58;;;;;;;11.54;56.64;101513.84;5052267;28;20025;-61
2022/03/29 01:22:46;;;;;;;27.10;19.40;;;;;;;11.53;56.69;101515.78;5052390;28;20523;-61
2022/03/29 01:25:32;;;;;;;28.48;19.48;;;;;;;11.62;56.29;101507.06;5053047;28;20543;-61
2022/03/29 01:27:59;;;;;;;28.67;20.02;;;;;;;11.54;56.88;101519.41;5033970;28;20044;-61
2022/03/29 01:30:25;;;;;;;29.15;19.88;;;;;;;11.47;56.80;101508.38;5039380;28;20045;-61
2022/03/29 01:32:52;;;;;;;29.23;21.38;;;;;;;11.47;57.09;101505.59;5051580;28;20357;-61
2022/03/29 01:35:23;;;;;;;28.88;20.77;;;;;;;11.38;57.01;101512.63;5052396;28;20037;-61
2022/03/29 01:37:52;;;;;;;33.97;20.20;;;;;;;11.42;56.82;101504.66;5051496;28;20118;-61
2022/03/29 01:40:20;;;;;;;32.20;20.60;;;;;;;11.37;57.15;101502.63;5050065;28;20099;-61
2022/03/29 01:42:57;;;;;;;28.48;21.10;;;;;;;11.28;57.08;101498.53;5051355;28;20032;-61
2022/03/29 01:45:30;;;;;;;30.83;20.85;;;;;;;11.28;57.32;101502.16;5052394;28;20037;-61
2022/03/29 01:47:56;;;;;;;32.60;20.08;;;;;;;11.25;57.24;101496.22;5050024;28;20070;-61
2022/03/29 01:50:22;;;;;;;29.23;20.95;;;;;;;11.26;57.43;101500.69;5052690;28;20029;-61
2022/03/29 01:52:48;;;;;;;29.80;21.58;;;;;;;11.24;57.57;101498.16;5051516;28;20484;-61
2022/03/29 01:55:19;;;;;;;29.55;21.77;;;;;;;11.22;57.79;101488.38;5042972;28;20026;-61
2022/03/29 01:57:46;;;;;;;33.00;22.33;;;;;;;11.22;57.76;101488.38;5034330;28;20111;-61
2022/03/29 02:00:30;;;;;;;31.67;21.65;;;;;;;11.17;58.18;101479.91;5050872;28;20525;-61
2022/03/29 02:02:59;;;;;;;30.13;21.67;;;;;;;11.14;57.96;101474.84;5047483;28;20373;-61
2022/03/29 02:05:25;;;;;;;32.85;21.30;;;;;;;11.13;58.25;101473.16;5032177;28;20634;-61
2022/03/29 02:07:50;;;;;;;38.47;23.13;;;;;;;11.15;58.25;101474.56;5039318;28;20071;-61
2022/03/29 02:10:17;;;;;;;31.75;23.38;;;;;;;11.13;58.62;101473.16;5051319;28;20029;-62
2022/03/29 02:12:43;;;;;;;33.85;23.42;;;;;;;11.04;58.79;101470.75;5044569;28;20472;-61
2022/03/29 02:15:09;;;;;;;33.30;23.55;;;;;;;11.16;58.85;101472.66;5051268;28;20111;-62
2022/03/29 02:17:35;;;;;;;35.45;23.00;;;;;;;11.11;58.90;101464.19;5042068;28;20033;-61
2022/03/29 02:20:03;;;;;;;38.15;24.88;;;;;;;11.14;58.65;101463.72;5051327;28;20407;-61
2022/03/29 02:22:28;;;;;;;34.35;24.92;;;;;;;11.05;58.60;101458.53;5035240;28;20052;-61
2022/03/29 02:24:54;;;;;;;35.83;24.77;;;;;;;11.06;58.57;101464.94;5045080;28;20018;-61
2022/03/29 02:27:19;;;;;;;36.03;25.27;;;;;;;11.04;58.79;101451.28;5032310;28;20451;-61
2022/03/29 02:29:44;;;;;;;35.38;25.15;;;;;;;11.04;58.72;101448.50;5042942;28;20036;-61
2022/03/29 02:32:12;;;;;;;33.15;24.02;;;;;;;11.00;58.70;101443.66;5051793;28;20017;-61
2022/03/29 02:34:38;;;;;;;34.58;24.25;;;;;;;10.98;58.92;101443.91;5045521;28;22430;-61
2022/03/29 02:37:03;;;;;;;34.95;24.92;;;;;;;10.95;59.24;101438.84;5061110;28;20032;-61
2022/03/29 02:39:31;;;;;;;40.28;26.70;;;;;;;10.90;59.41;101435.94;5039657;28;20425;-61
2022/03/29 02:41:56;;;;;;;32.78;24.30;;;;;;;10.91;59.25;101431.22;5040511;28;20025;-62
2022/03/29 02:44:21;;;;;;;36.35;25.50;;;;;;;10.91;59.31;101434.00;5050788;28;20365;-61
2022/03/29 02:46:47;;;;;;;38.65;25.73;;;;;;;10.89;59.43;101439.81;5049094;28;20380;-61
2022/03/29 02:49:12;;;;;;;39.05;26.60;;;;;;;10.91;59.46;101425.66;5050641;28;20112;-61
2022/03/29 02:51:37;;;;;;;36.13;25.70;;;;;;;10.88;59.45;101427.00;5048729;28;20043;-61
2022/03/29 02:54:03;;;;;;;38.20;27.02;;;;;;;10.94;59.60;101417.72;5041538;28;20029;-61
2022/03/29 02:56:28;;;;;;;38.67;27.20;;;;;;;10.90;59.91;101419.28;5046557;28;20068;-61
2022/03/29 02:58:54;;;;;;;39.35;28.58;;;;;;;10.91;59.65;101415.41;5045487;28;20491;-61
2022/03/29 03:01:19;;;;;;;39.50;27.77;;;;;;;10.95;59.58;101416.59;5049824;28;20025;-61
2022/03/29 03:03:44;;;;;;;43.60;28.80;;;;;;;10.97;60.18;101413.59;5050991;28;20060;-61
2022/03/29 03:06:10;;;;;;;40.15;28.48;;;;;;;10.94;59.70;101409.38;5039183;28;20027;-61
2022/03/29 03:08:35;;;;;;;42.17;29.33;;;;;;;10.97;59.67;101402.50;5043082;28;20502;-60
2022/03/29 03:11:00;;;;;;;43.67;29.27;;;;;;;10.95;59.78;101405.50;5045146;28;20021;-60
2022/03/29 03:13:26;;;;;;;43.42;28.58;;;;;;;11.01;59.57;101398.16;5038192;28;20163;-60
2022/03/29 03:15:52;;;;;;;43.83;30.00;;;;;;;10.96;59.78;101404.41;5038142;28;20021;-60
2022/03/29 03:18:17;;;;;;;44.08;30.50;;;;;;;10.99;59.64;101401.16;5030973;28;20116;-60
2022/03/29 03:20:43;;;;;;;44.60;29.75;;;;;;;10.99;59.77;101394.75;5036169;28;20112;-61
2022/03/29 03:23:11;;;;;;;42.25;30.38;;;;;;;10.93;59.95;101395.75;5030939;28;20037;-62
2022/03/29 03:25:36;;;;;;;44.08;30.42;;;;;;;10.93;59.86;101396.59;5032098;28;20107;-61
2022/03/29 03:28:02;;;;;;;44.78;30.20;;;;;;;10.96;59.80;101387.75;5046747;28;20052;-60
2022/03/29 03:30:27;;;;;;;46.95;30.15;;;;;;;10.94;59.62;101387.16;5037931;28;20481;-60
2022/03/29 03:32:55;;;;;;;42.10;31.45;;;;;;;11.04;59.68;101392.97;5045259;28;20029;-60
2022/03/29 03:35:20;;;;;;;42.80;30.05;;;;;;;11.04;59.72;101390.19;5048431;28;20490;-61
2022/03/29 03:37:47;;;;;;;43.67;31.00;;;;;;;11.07;59.55;101398.00;5038244;28;20041;-60
2022/03/29 03:40:12;;;;;;;44.08;29.65;;;;;;;10.93;59.86;101384.63;5047338;28;20028;-60
2022/03/29 03:42:41;;;;;;;48.47;32.08;;;;;;;10.89;59.88;101384.28;5049605;28;20032;-60
2022/03/29 03:45:07;;;;;;;45.92;31.85;;;;;;;10.87;59.91;101391.13;5035279;28;20499;-60
2022/03/29 03:47:33;;;;;;;42.97;31.65;;;;;;;10.91;60.23;101379.31;5056981;28;20033;-60
2022/03/29 03:49:59;;;;;;;46.53;32.80;;;;;;;10.92;59.98;101378.19;5050629;28;20480;-61
2022/03/29 03:52:25;;;;;;;48.20;32.97;;;;;;;10.87;60.03;101391.13;5047815;28;20045;-61
2022/03/29 03:54:51;;;;;;;48.42;32.03;;;;;;;10.82;60.34;101384.38;5048383;28;20036;-61
2022/03/29 03:57:17;;;;;;;44.97;32.17;;;;;;;10.75;60.22;101382.81;5039909;28;20051;-60
2022/03/29 03:59:44;;;;;;;49.55;33.97;;;;;;;10.73;60.49;101374.72;5039718;28;20026;-61
2022/03/29 04:02:10;;;;;;;46.63;34.03;;;;;;;10.72;60.47;101380.50;5029907;28;20048;-59
2022/03/29 04:04:35;;;;;;;45.33;33.13;;;;;;;10.76;60.31;101365.91;5048738;28;20111;-61
2022/03/29 04:07:00;;;;;;;47.35;33.92;;;;;;;10.70;60.49;101363.25;5050094;28;20135;-60
2022/03/29 04:09:27;;;;;;;47.40;34.25;;;;;;;10.67;60.60;101361.81;5049947;28;20036;-60
2022/03/29 04:12:03;;;;;;;50.40;35.28;;;;;;;10.72;60.29;101361.91;5054930;28;20515;-61
2022/03/29 04:14:28;;;;;;;49.40;35.13;;;;;;;10.65;60.65;101352.88;5050150;28;20415;-61
2022/03/29 04:16:54;;;;;;;51.22;36.03;;;;;;;10.67;60.61;101356.25;5044999;28;20127;-61
2022/03/29 04:19:19;;;;;;;48.90;35.28;;;;;;;10.71;60.22;101353.84;5031886;28;20056;-62
2022/03/29 04:21:45;;;;;;;54.10;35.55;;;;;;;10.72;60.58;101355.53;5040940;28;20090;-63
2022/03/29 04:24:10;;;;;;;48.92;35.05;;;;;;;10.75;60.25;101341.16;5050183;28;20029;-63
2022/03/29 04:26:38;;;;;;;46.90;34.97;;;;;;;10.72;60.35;101345.25;5041670;28;20049;-61
2022/03/29 04:29:04;;;;;;;54.83;36.47;;;;;;;10.62;60.49;101338.66;5039988;28;20025;-61
2022/03/29 04:31:29;;;;;;;51.13;36.15;;;;;;;10.63;60.49;101330.06;5049359;28;20021;-62
2022/03/29 04:33:55;;;;;;;50.63;37.20;;;;;;;10.62;60.49;101330.31;5050478;28;20056;-61
2022/03/29 04:36:20;;;;;;;51.45;37.40;;;;;;;10.65;60.27;101321.47;5048066;28;20073;-61
2022/03/29 04:38:45;;;;;;;55.75;38.05;;;;;;;10.57;60.46;101325.47;5048742;28;20136;-61
2022/03/29 04:41:11;;;;;;;50.35;37.47;;;;;;;10.56;60.44;101327.41;5049563;28;20029;-61
2022/03/29 04:43:39;;;;;;;49.45;36.58;;;;;;;10.52;60.78;101326.19;5051615;28;20040;-61
2022/03/29 04:46:05;;;;;;;53.25;38.63;;;;;;;10.56;60.51;101326.56;5053614;28;20020;-60
2022/03/29 04:48:31;;;;;;;52.38;38.05;;;;;;;10.52;60.50;101325.34;5040427;28;20460;-60
2022/03/29 04:50:56;;;;;;;51.55;37.38;;;;;;;10.51;60.66;101316.19;5037047;28;20124;-61
2022/03/29 04:53:21;;;;;;;54.85;37.78;;;;;;;10.52;60.45;101315.09;5033751;28;20859;-62
2022/03/29 04:55:46;;;;;;;52.15;38.75;;;;;;;10.46;60.56;101306.91;5044240;28;20032;-62
2022/03/29 04:58:14;;;;;;;55.78;39.67;;;;;;;10.46;60.64;101318.00;5052697;28;20037;-62
2022/03/29 05:00:40;;;;;;;56.17;39.80;;;;;;;10.52;60.51;101317.03;5048685;28;20025;-61
2022/03/29 05:03:05;;;;;;;56.63;40.20;;;;;;;10.50;60.49;101311.72;5050782;28;20041;-61
2022/03/29 05:05:30;;;;;;;55.13;38.25;;;;;;;10.46;60.36;101318.00;5053620;28;20036;-60
2022/03/29 05:07:56;;;;;;;55.08;38.80;;;;;;;10.40;60.81;101316.19;5058108;28;20024;-61
2022/03/29 05:10:21;;;;;;;53.97;40.22;;;;;;;10.35;61.08;101319.69;5053659;28;20033;-61
2022/03/29 05:12:49;;;;;;;57.08;40.55;;;;;;;10.38;61.11;101305.34;5043111;28;20052;-61
2022/03/29 05:15:18;;;;;;;57.83;40.22;;;;;;;10.40;60.81;101307.84;5051921;28;20120;-62
2022/03/29 05:17:44;;;;;;;56.05;40.20;;;;;;;10.33;61.05;101307.97;5048939;28;20111;-62
2022/03/29 05:20:11;;;;;;;57.40;42.90;;;;;;;10.29;61.07;101313.16;5049718;28;20033;-61
2022/03/29 05:22:52;;;;;;;56.47;40.22;;;;;;;10.31;61.04;101305.44;5050000;28;20025;-62
2022/03/29 05:25:22;;;;;;;53.38;38.70;;;;;;;10.31;61.22;101304.59;5048570;28;20033;-62
2022/03/29 05:27:52;;;;;;;58.28;42.22;;;;;;;10.24;61.42;101303.84;5045207;28;20075;-61
2022/03/29 05:30:19;;;;;;;59.58;42.25;;;;;;;10.20;61.52;101316.50;5048609;28;20699;-61
2022/03/29 05:32:50;;;;;;;59.33;42.83;;;;;;;10.13;61.28;101305.50;5040060;28;20036;-63
2022/03/29 05:35:15;;;;;;;64.97;44.03;;;;;;;10.15;61.35;101316.38;5043957;28;20037;-62
2022/03/29 05:37:41;;;;;;;65.43;44.13;;;;;;;10.11;61.47;101304.06;5044225;28;20033;-62
2022/03/29 05:40:09;;;;;;;67.20;44.28;;;;;;;10.09;61.61;101307.06;5040376;28;20029;-62
2022/03/29 05:42:39;;;;;;;65.53;44.75;;;;;;;10.14;61.71;101304.44;5038826;28;20041;-62
2022/03/29 05:45:06;;;;;;;68.50;45.35;;;;;;;10.13;61.59;101310.22;5045460;28;20104;-62
2022/03/29 05:50:15;;;;;;;65.68;44.08;;;;;;;10.13;62.16;101308.28;5037895;28;20443;-60
2022/03/29 05:52:40;;;;;;;65.70;44.17;;;;;;;10.11;61.88;101298.53;5037854;28;20029;-61
2022/03/29 05:55:06;;;;;;;68.18;45.38;;;;;;;10.06;62.49;101305.63;5045790;28;20079;-61
2022/03/29 05:57:31;;;;;;;69.03;44.47;;;;;;;10.09;62.13;101307.06;5036209;28;20029;-60
2022/03/29 05:59:57;;;;;;;68.10;45.47;;;;;;;10.06;62.49;101305.63;5046989;28;20033;-61
2022/03/29 06:02:24;;;;;;;66.90;43.92;;;;;;;10.05;62.20;101305.84;5044485;28;20053;-60
2022/03/29 06:04:50;;;;;;;67.85;44.67;;;;;;;9.98;62.44;101305.13;5047095;28;20021;-60
2022/03/29 06:07:15;;;;;;;70.18;47.05;;;;;;;10.03;62.78;101308.88;5050077;28;20491;-60
2022/03/29 06:09:40;;;;;;;69.65;45.40;;;;;;;10.03;62.63;101314.44;5049462;28;20082;-61
2022/03/29 06:12:06;;;;;;;69.47;45.10;;;;;;;10.03;62.51;101308.03;5057344;28;20176;-61
2022/03/29 06:14:32;;;;;;;75.10;47.80;;;;;;;9.94;63.26;101306.69;5031703;28;20099;-60
2022/03/29 06:16:57;;;;;;;69.13;46.55;;;;;;;9.96;63.09;101308.13;5051684;28;20044;-60
2022/03/29 06:19:32;;;;;;;70.13;46.25;;;;;;;9.95;62.95;101306.47;5040338;28;20506;-62
2022/03/29 06:21:58;;;;;;;72.97;46.70;;;;;;;9.90;63.45;101306.31;5050697;28;20027;-61
2022/03/29 06:24:23;;;;;;;71.78;45.58;;;;;;;9.96;63.13;101308.13;5053252;28;20033;-59
2022/03/29 06:26:49;;;;;;;76.47;47.05;;;;;;;9.96;63.47;101305.38;5037196;28;20834;-60
2022/03/29 06:29:14;;;;;;;74.60;47.72;;;;;;;10.02;63.42;101306.31;5039438;28;20073;-60
2022/03/29 06:31:42;;;;;;;76.43;48.63;;;;;;;9.96;63.58;101302.59;5047851;28;20518;-59
2022/03/29 06:34:07;;;;;;;74.80;49.63;;;;;;;9.96;63.51;101305.38;5044394;28;20033;-60
2022/03/29 06:36:33;;;;;;;76.70;48.50;;;;;;;10.01;63.54;101299.94;5047319;28;20067;-59
2022/03/29 06:38:58;;;;;;;74.78;47.63;;;;;;;10.01;63.69;101297.16;5048757;28;20546;-60
2022/03/29 06:41:24;;;;;;;78.63;48.83;;;;;;;10.01;63.80;101299.94;5043801;28;20518;-60
2022/03/29 06:43:49;;;;;;;78.38;49.13;;;;;;;10.00;63.58;101309.34;5041703;28;20025;-62
2022/03/29 06:46:15;;;;;;;76.47;47.53;;;;;;;9.99;63.22;101307.66;5037506;28;20043;-62
2022/03/29 06:48:41;;;;;;;82.13;50.15;;;;;;;9.92;63.46;101300.53;5040395;28;20041;-61
2022/03/29 06:51:12;;;;;;;77.70;47.97;;;;;;;9.79;64.21;101301.59;5042362;28;20412;-61
2022/03/29 06:53:38;;;;;;;77.93;48.45;;;;;;;9.70;64.27;101298.28;5036406;28;20021;-61
2022/03/29 06:56:05;;;;;;;77.18;48.15;;;;;;;9.69;64.34;101298.53;5046550;28;20079;-60
2022/03/29 06:58:30;;;;;;;80.38;48.80;;;;;;;9.70;64.53;101295.53;5047896;28;20049;-60
2022/03/29 07:00:56;;;;;;;85.25;49.88;;;;;;;9.70;64.85;101297.47;5037916;28;20392;-60
2022/03/29 07:03:23;;;;;;;80.45;48.47;;;;;;;9.70;64.71;101303.00;5049412;28;20156;-60
2022/03/29 07:05:49;;;;;;;81.60;48.60;;;;;;;9.71;64.63;101296.41;5049908;28;20033;-61
2022/03/29 07:08:16;;;;;;;83.22;50.28;;;;;;;9.64;65.37;101296.50;5044753;28;20495;-61
2022/03/29 07:13:26;;;;;;;83.63;50.08;;;;;;;9.62;65.40;101289.47;5037401;28;20047;-61
2022/03/29 07:15:52;;;;;;;86.70;51.42;;;;;;;9.59;65.40;101288.88;5036817;28;20021;-61
2022/03/29 07:18:17;;;;;;;83.97;49.45;;;;;;;9.65;65.08;101289.00;5034274;28;20404;-61
2022/03/29 07:20:43;;;;;;;81.80;49.08;;;;;;;9.60;65.41;101286.97;5035415;28;20029;-61
2022/03/29 07:23:08;;;;;;;81.22;49.75;;;;;;;9.62;65.54;101292.25;5042556;28;20041;-60
2022/03/29 07:25:34;;;;;;;86.32;50.35;;;;;;;9.62;65.32;101290.31;5038349;28;20025;-59
2022/03/29 07:28:01;;;;;;;86.40;49.05;;;;;;;9.60;65.09;101298.03;5039302;28;20057;-59
2022/03/29 07:30:28;;;;;;;90.07;51.20;;;;;;;9.61;65.22;101296.13;5038681;28;20510;-61
2022/03/29 07:32:57;;;;;;;88.03;50.47;;;;;;;9.61;65.53;101304.44;5039192;28;20051;-61
2022/03/29 07:35:25;;;;;;;90.03;50.65;;;;;;;9.59;65.30;101301.91;5033953;28;20466;-61
2022/03/29 07:37:51;;;;;;;86.95;49.63;;;;;;;9.58;65.59;101301.03;5031409;28;20116;-60
2022/03/29 07:40:20;;;;;;;87.63;50.80;;;;;;;9.61;65.87;101304.44;5030237;28;20053;-60
2022/03/29 07:42:45;;;;;;;86.47;49.10;;;;;;;9.62;65.68;101297.78;5034838;28;20085;-60
2022/03/29 07:45:17;;;;;;;88.18;48.67;;;;;;;9.66;65.88;101312.88;5038472;28;20037;-59
2022/03/29 07:47:46;;;;;;;86.65;50.47;;;;;;;9.64;66.19;101315.88;5044204;28;20033;-59
2022/03/29 07:50:12;;;;;;;84.38;48.20;;;;;;;9.69;65.79;101320.72;5040679;28;20029;-59
2022/03/29 07:52:39;;;;;;;83.72;47.63;;;;;;;9.71;65.36;101324.13;5047743;28;20538;-59
2022/03/29 07:55:09;;;;;;;83.20;47.83;;;;;;;9.69;65.76;101324.34;5047487;28;20029;-61
2022/03/29 07:57:35;;;;;;;90.70;50.08;;;;;;;9.74;65.35;101327.22;5047994;28;20434;-59
2022/03/29 08:00:31;;;;;;;93.25;49.65;;;;;;;9.68;65.28;101324.59;5048808;28;20029;-60
2022/03/29 08:02:50;;;;;;;80.97;45.33;;;;;;;9.78;65.39;101322.91;5038249;28;20045;-60
2022/03/29 08:05:15;;;;;;;69.60;38.72;;;;;;;10.01;66.65;101321.28;5027168;28;20044;-60
2022/03/29 08:07:41;;;;;;;83.10;47.60;;;;;;;9.98;65.06;101318.97;5029813;28;20056;-60
2022/03/29 08:10:07;;;;;;;94.22;51.13;;;;;;;9.93;64.96;101319.69;5027634;28;20029;-58
2022/03/29 08:12:38;;;;;;;65.75;36.58;;;;;;;10.37;66.73;101320.28;5028284;28;20045;-60
2022/03/29 08:15:05;;;;;;;87.32;51.22;;;;;;;10.07;64.76;101314.81;5020966;28;20037;-61
2022/03/29 08:17:31;;;;;;;89.38;51.20;;;;;;;10.03;64.57;101311.66;5031137;28;20037;-60
2022/03/29 08:19:56;;;;;;;92.28;50.85;;;;;;;10.02;64.78;101317.41;5033140;28;20469;-60
2022/03/29 08:22:21;;;;;;;87.40;48.72;;;;;;;10.01;64.58;101311.03;5029105;28;20077;-60
2022/03/29 08:24:47;;;;;;;90.47;49.58;;;;;;;9.94;64.74;101304.78;5032708;28;20396;-60
2022/03/29 08:27:14;;;;;;;90.47;49.67;;;;;;;9.93;65.56;101302.22;5030271;28;20463;-60
2022/03/29 08:29:39;;;;;;;87.72;49.65;;;;;;;9.87;65.45;101301.25;5025546;28;20037;-60
2022/03/29 08:32:05;;;;;;;88.28;49.70;;;;;;;9.91;65.36;101310.78;5031859;28;20372;-60
2022/03/29 08:34:31;;;;;;;87.78;50.40;;;;;;;9.92;65.26;101304.16;5030701;28;20152;-60
2022/03/29 08:36:56;;;;;;;91.93;51.60;;;;;;;9.87;65.63;101309.56;5030957;28;20498;-60
2022/03/29 08:39:21;;;;;;;90.93;50.60;;;;;;;9.91;65.36;101305.25;5030443;28;20043;-59
2022/03/29 08:41:55;;;;;;;89.18;48.80;;;;;;;9.89;65.42;101299.06;5029515;28;20499;-59
2022/03/29 08:44:21;;;;;;;93.15;50.72;;;;;;;9.84;65.74;101302.56;5012151;28;20049;-58
2022/03/29 08:46:49;;;;;;;87.95;48.72;;;;;;;9.91;65.36;101301.63;5028258;28;20384;-58
2022/03/29 08:49:17;;;;;;;91.57;50.15;;;;;;;9.89;65.76;101304.63;5030467;28;20140;-58
2022/03/29 08:51:43;;;;;;;90.80;50.70;;;;;;;9.91;65.84;101312.72;5030547;28;20095;-60
2022/03/29 08:54:12;;;;;;;99.22;51.42;;;;;;;9.89;65.70;101307.41;5025848;28;20040;-59
2022/03/29 08:56:39;;;;;;;103.65;52.15;;;;;;;9.88;66.02;101310.41;5029319;28;20025;-59
2022/03/29 08:59:05;;;;;;;99.95;52.92;;;;;;;9.86;65.76;101302.31;5029089;28;20041;-60
2022/03/29 09:01:30;;;;;;;98.38;53.00;;;;;;;9.89;65.82;101304.63;5029246;28;20045;-60
2022/03/29 09:04:03;;;;;;;98.82;52.88;;;;;;;9.90;65.57;101309.06;5032280;28;20140;-60
2022/03/29 09:06:32;;;;;;;97.82;51.92;;;;;;;9.81;66.18;101305.81;5028235;28;20045;-60
2022/03/29 09:08:57;;;;;;;92.60;50.45;;;;;;;9.87;66.12;101304.03;5032958;28;20021;-60
2022/03/29 09:11:23;;;;;;;102.05;52.40;;;;;;;9.89;65.67;101303.78;5033198;28;20086;-59
2022/03/29 09:14:04;;;;;;;103.00;51.85;;;;;;;9.94;65.13;101302.00;5029689;28;20033;-60
2022/03/29 09:16:32;;;;;;;101.95;52.90;;;;;;;9.91;65.37;101305.25;5030323;28;20045;-59
2022/03/29 09:18:58;;;;;;;106.40;54.25;;;;;;;9.91;65.79;101298.84;5039693;28;20045;-59
2022/03/29 09:21:24;;;;;;;108.05;53.45;;;;;;;9.75;65.75;101294.84;5037054;28;20396;-58
2022/03/29 09:24:08;;;;;;;109.28;52.65;;;;;;;9.74;65.89;101298.66;5028799;28;20083;-59
2022/03/29 09:26:38;;;;;;;112.88;55.97;;;;;;;9.72;65.91;101296.16;5038080;28;20217;-58
2022/03/29 09:29:12;;;;;;;111.75;54.15;;;;;;;9.75;66.17;101295.69;5030669;28;20083;-59
2022/03/29 09:31:39;;;;;;;109.97;53.40;;;;;;;9.73;66.50;101299.75;5038029;28;20413;-59
2022/03/29 09:34:20;;;;;;;109.40;53.10;;;;;;;9.75;66.13;101305.94;5028609;28;20064;-60
2022/03/29 09:36:51;;;;;;;115.15;54.30;;;;;;;9.72;66.56;101289.75;5030332;28;20060;-60
2022/03/29 09:39:35;;;;;;;116.47;55.88;;;;;;;9.76;66.27;101294.59;5032883;28;20392;-60
2022/03/29 09:42:04;;;;;;;114.50;54.90;;;;;;;9.64;67.16;101288.19;5039381;28;20868;-60
2022/03/29 09:44:47;;;;;;;117.82;56.70;;;;;;;9.65;66.47;101281.53;5040834;28;20033;-61
2022/03/29 09:47:15;;;;;;;115.30;56.17;;;;;;;9.66;67.28;101277.69;5036994;28;20075;-60
2022/03/29 09:50:01;;;;;;;115.82;57.03;;;;;;;9.71;66.67;101277.00;5031315;28;20563;-61
2022/03/29 09:52:28;;;;;;;115.75;58.67;;;;;;;9.70;67.09;101276.13;5032053;28;20041;-61
2022/03/29 09:55:03;;;;;;;119.80;57.92;;;;;;;9.77;66.98;101273.25;5040039;28;20033;-60
2022/03/29 09:57:45;;;;;;;112.50;56.60;;;;;;;9.83;66.67;101270.38;5036178;28;20812;-62
2022/03/29 10:00:35;;;;;;;108.68;55.55;;;;;;;9.81;66.44;101267.00;5033159;28;20241;-62
2022/03/29 10:03:02;;;;;;;101.80;54.25;;;;;;;9.81;66.78;101267.00;5038275;28;20171;-62
2022/03/29 10:05:30;;;;;;;101.78;54.90;;;;;;;9.81;66.87;101260.59;5046177;28;20032;-61
2022/03/29 10:10:47;;;;;;;101.57;52.00;;;;;;;9.90;66.48;101256.41;5048949;28;20040;-62
2022/03/29 10:13:14;;;;;;;104.72;52.85;;;;;;;9.95;66.15;101247.38;5041685;28;20384;-61
2022/03/29 10:15:45;;;;;;;92.88;52.35;;;;;;;9.92;66.34;101245.94;5050235;28;20025;-63
2022/03/29 10:18:11;;;;;;;93.40;51.22;;;;;;;9.88;66.40;101241.09;5045445;28;20076;-62
2022/03/29 10:20:40;;;;;;;88.50;48.92;;;;;;;9.89;66.25;101240.84;5040718;28;20111;-62
2022/03/29 10:23:06;;;;;;;98.95;52.50;;;;;;;9.81;66.12;101236.50;5041059;28;20032;-61
2022/03/29 10:25:35;;;;;;;93.18;49.80;;;;;;;9.83;66.52;101239.88;5041478;28;20399;-64
2022/03/29 10:28:01;;;;;;;85.88;49.42;;;;;;;9.87;66.47;101234.72;5039415;28;20036;-62
2022/03/29 10:30:34;;;;;;;86.30;48.35;;;;;;;9.88;66.80;101238.31;5040644;28;20026;-61
2022/03/29 10:33:16;;;;;;;;;;;;;;;10.09;65.02;101241.34;5049147;28;20032;-61
2022/03/29 10:36:03;;;;;;;81.03;46.72;;;;;;;10.03;65.78;101252.56;5041404;28;20391;-61
2022/03/29 10:38:43;;;;;;;80.03;47.33;;;;;;;9.99;65.64;101238.34;5043223;28;20041;-61
2022/03/29 10:41:44;;;;;;;81.45;46.40;;;;;;;9.98;65.52;101244.97;5041641;28;20047;-61
2022/03/29 10:44:14;;;;;;;78.63;46.20;;;;;;;9.96;66.08;101238.81;4995658;28;20068;-61
2022/03/29 10:46:40;;;;;;;77.47;47.08;;;;;;;10.01;65.93;101227.84;5044884;28;20033;-61
2022/03/29 10:49:24;;;;;;;80.55;46.60;;;;;;;10.03;65.87;101225.69;5042733;28;20071;-61
2022/03/29 10:51:57;;;;;;;73.93;44.95;;;;;;;10.05;66.12;101225.44;5051765;28;20060;-62
2022/03/29 10:54:27;;;;;;;80.60;46.92;;;;;;;10.07;65.91;101223.28;5047833;28;20051;-61
2022/03/29 10:56:56;;;;;;;74.40;46.13;;;;;;;10.06;66.77;101225.22;5038865;28;20472;-60
2022/03/29 10:59:22;;;;;;;73.40;45.72;;;;;;;10.12;66.18;101222.53;5045788;28;20124;-62
2022/03/29 11:02:13;;;;;;;69.93;42.70;;;;;;;10.09;66.07;101218.31;5047408;28;20115;-61
2022/03/29 11:05:04;;;;;;;71.43;43.28;;;;;;;10.06;66.30;101208.56;5048203;28;20044;-61
2022/03/29 11:07:31;;;;;;;68.97;43.55;;;;;;;10.03;66.82;101214.59;5047294;28;20037;-61
2022/03/29 11:10:14;;;;;;;68.43;42.90;;;;;;;10.12;66.15;101195.66;5042203;28;20024;-61
2022/03/29 11:12:43;;;;;;;67.82;42.00;;;;;;;10.14;66.31;101198.16;5047397;28;20029;-61
2022/03/29 11:15:24;;;;;;;65.45;42.47;;;;;;;10.24;66.33;101192.88;5042603;28;20566;-61
2022/03/29 11:17:50;;;;;;;64.97;40.22;;;;;;;10.27;66.33;101197.97;5041901;28;20098;-61
2022/03/29 11:20:29;;;;;;;63.00;40.67;;;;;;;10.27;66.17;101201.59;5048876;28;20440;-61
2022/03/29 11:22:58;;;;;;;65.38;41.72;;;;;;;10.29;66.34;101201.31;5043516;28;20033;-60
2022/03/29 11:25:23;;;;;;;65.28;40.80;;;;;;;10.32;66.52;101182.25;5048104;28;20504;-61